createdAt,value
2022-08-19T00:00:08.767Z,379
2022-08-19T00:01:07.886Z,380
2022-08-19T00:02:07.269Z,371
2022-08-19T00:04:07.330Z,375
2022-08-19T00:05:07.377Z,382
2022-08-19T00:06:07.494Z,385
2022-08-19T00:07:07.887Z,395
2022-08-19T00:08:07.159Z,392
2022-08-19T00:09:07.574Z,387
2022-08-19T00:10:07.888Z,383
2022-08-19T00:11:07.201Z,380
2022-08-19T00:12:07.871Z,381
2022-08-19T00:13:07.256Z,377
2022-08-19T00:14:07.237Z,380
2022-08-19T00:15:07.568Z,378
2022-08-19T00:16:07.554Z,375
2022-08-19T00:17:07.690Z,372
2022-08-19T00:18:07.733Z,366
2022-08-19T00:19:07.428Z,370
2022-08-19T00:20:07.586Z,386
2022-08-19T00:21:07.739Z,400
2022-08-19T00:22:07.695Z,392
2022-08-19T00:23:07.613Z,382
2022-08-19T00:24:07.694Z,378
2022-08-19T00:25:08.009Z,373
2022-08-19T00:26:07.465Z,386
2022-08-19T00:27:26.221Z,385
2022-08-19T00:28:07.048Z,388
2022-08-19T00:29:07.057Z,382
2022-08-19T00:30:07.212Z,375
2022-08-19T00:31:07.434Z,377
2022-08-19T00:32:07.640Z,381
2022-08-19T00:33:07.311Z,389
2022-08-19T00:34:07.277Z,383
2022-08-19T00:35:07.418Z,378
2022-08-19T00:36:07.242Z,380
2022-08-19T00:37:07.312Z,375
2022-08-19T00:38:07.447Z,381
2022-08-19T00:39:07.553Z,396
2022-08-19T00:40:07.491Z,387
2022-08-19T00:41:07.379Z,375
2022-08-19T00:42:07.273Z,368
2022-08-19T00:43:07.323Z,380
2022-08-19T00:44:07.555Z,387
2022-08-19T00:45:07.805Z,381
2022-08-19T00:46:07.789Z,372
2022-08-19T00:47:07.900Z,377
2022-08-19T00:48:14.748Z,389
2022-08-19T00:49:07.335Z,384
2022-08-19T00:50:07.245Z,392
2022-08-19T00:51:07.342Z,383
2022-08-19T00:52:07.424Z,385
2022-08-19T00:53:07.375Z,380
2022-08-19T00:54:07.598Z,369
2022-08-19T00:55:07.733Z,358
2022-08-19T00:56:07.428Z,396
2022-08-19T00:57:07.429Z,368
2022-08-19T00:59:07.464Z,376
2022-08-19T01:00:08.429Z,377
2022-08-19T01:02:07.208Z,386
2022-08-19T01:03:07.383Z,377
2022-08-19T01:04:07.406Z,368
2022-08-19T01:05:07.255Z,375
2022-08-19T01:06:07.282Z,383
2022-08-19T01:07:07.211Z,385
2022-08-19T01:08:07.357Z,380
2022-08-19T01:09:07.521Z,377
2022-08-19T01:10:07.482Z,374
2022-08-19T01:11:07.499Z,381
2022-08-19T01:12:07.501Z,361
2022-08-19T01:13:07.675Z,378
2022-08-19T01:14:07.704Z,374
2022-08-19T01:15:08.014Z,382
2022-08-19T01:16:07.282Z,387
2022-08-19T01:17:07.202Z,380
2022-08-19T01:18:07.381Z,386
2022-08-19T01:19:07.565Z,397
2022-08-19T01:20:07.950Z,391
2022-08-19T01:21:07.191Z,385
2022-08-19T01:22:14.263Z,386
2022-08-19T01:23:07.587Z,380
2022-08-19T01:24:07.839Z,378
2022-08-19T01:25:13.546Z,379
2022-08-19T01:26:07.482Z,376
2022-08-19T01:27:07.535Z,368
2022-08-19T01:28:11.093Z,379
2022-08-19T01:29:07.396Z,387
2022-08-19T01:30:07.976Z,385
2022-08-19T01:31:08.167Z,377
2022-08-19T01:32:07.394Z,371
2022-08-19T01:33:07.202Z,373
2022-08-19T01:34:07.150Z,380
2022-08-19T01:35:07.129Z,370
2022-08-19T01:36:07.366Z,379
2022-08-19T01:37:07.393Z,386
2022-08-19T01:38:07.528Z,392
2022-08-19T01:39:07.379Z,391
2022-08-19T01:40:09.404Z,380
2022-08-19T01:41:09.753Z,372
2022-08-19T01:42:07.352Z,407
2022-08-19T01:43:07.414Z,388
2022-08-19T01:44:18.025Z,386
2022-08-19T01:45:07.545Z,385
2022-08-19T01:46:07.606Z,384
2022-08-19T01:47:07.673Z,391
2022-08-19T01:48:07.805Z,376
2022-08-19T01:49:07.847Z,371
2022-08-19T01:50:07.946Z,373
2022-08-19T01:51:07.210Z,371
2022-08-19T01:52:07.254Z,372
2022-08-19T01:53:07.844Z,375
2022-08-19T01:55:07.845Z,388
2022-08-19T01:56:07.042Z,404
2022-08-19T01:57:07.103Z,372
2022-08-19T01:58:07.183Z,386
2022-08-19T01:59:07.180Z,383
2022-08-19T02:00:08.065Z,381
2022-08-19T02:01:07.840Z,372
2022-08-19T02:02:07.302Z,377
2022-08-19T02:03:07.331Z,372
2022-08-19T02:04:07.303Z,395
2022-08-19T02:05:07.637Z,396
2022-08-19T02:06:07.045Z,392
2022-08-19T02:07:07.166Z,390
2022-08-19T02:08:07.173Z,394
2022-08-19T02:09:07.349Z,392
2022-08-19T02:10:09.409Z,382
2022-08-19T02:11:07.706Z,374
2022-08-19T02:12:07.041Z,393
2022-08-19T02:13:07.088Z,381
2022-08-19T02:14:07.704Z,384
2022-08-19T02:15:07.913Z,385
2022-08-19T02:16:07.028Z,377
2022-08-19T02:17:07.231Z,383
2022-08-19T02:18:07.329Z,382
2022-08-19T02:19:07.622Z,379
2022-08-19T02:20:07.616Z,380
2022-08-19T02:21:07.667Z,385
2022-08-19T02:22:07.605Z,383
2022-08-19T02:23:13.912Z,389
2022-08-19T02:24:07.247Z,383
2022-08-19T02:25:07.495Z,381
2022-08-19T02:26:07.545Z,354
2022-08-19T02:27:07.622Z,437
2022-08-19T02:28:07.604Z,391
2022-08-19T02:29:07.752Z,375
2022-08-19T02:30:08.245Z,373
2022-08-19T02:31:07.684Z,382
2022-08-19T02:32:07.723Z,373
2022-08-19T02:33:07.304Z,381
2022-08-19T02:34:07.290Z,388
2022-08-19T02:35:12.156Z,383
2022-08-19T02:36:07.297Z,380
2022-08-19T02:37:07.575Z,382
2022-08-19T02:38:07.666Z,384
2022-08-19T02:39:07.852Z,388
2022-08-19T02:40:12.403Z,375
2022-08-19T02:42:07.798Z,393
2022-08-19T02:43:07.059Z,380
2022-08-19T02:45:08.008Z,367
2022-08-19T02:46:07.465Z,380
2022-08-19T02:47:07.861Z,389
2022-08-19T02:48:12.706Z,384
2022-08-19T02:49:07.782Z,381
2022-08-19T02:50:07.768Z,389
2022-08-19T02:51:06.837Z,391
2022-08-19T02:52:07.165Z,381
2022-08-19T02:53:07.433Z,382
2022-08-19T02:54:07.166Z,368
2022-08-19T02:55:07.657Z,374
2022-08-19T02:56:07.815Z,386
2022-08-19T02:57:07.112Z,377
2022-08-19T02:58:07.323Z,374
2022-08-19T02:59:07.405Z,366
2022-08-19T03:01:08.215Z,367
2022-08-19T03:02:07.674Z,388
2022-08-19T03:03:07.910Z,395
2022-08-19T03:04:07.112Z,392
2022-08-19T03:05:07.437Z,387
2022-08-19T03:06:07.502Z,376
2022-08-19T03:07:11.191Z,388
2022-08-19T03:08:07.467Z,393
2022-08-19T03:09:07.605Z,380
2022-08-19T03:10:07.699Z,377
2022-08-19T03:11:07.641Z,385
2022-08-19T03:12:07.790Z,392
2022-08-19T03:13:07.830Z,362
2022-08-19T03:14:07.055Z,376
2022-08-19T03:15:07.619Z,380
2022-08-19T03:16:07.584Z,388
2022-08-19T03:17:07.533Z,394
2022-08-19T03:20:07.254Z,402
2022-08-19T03:21:07.233Z,397
2022-08-19T03:22:06.948Z,399
2022-08-19T03:23:07.020Z,406
2022-08-19T03:24:07.070Z,402
2022-08-19T03:25:07.415Z,403
2022-08-19T03:26:15.859Z,396
2022-08-19T03:27:07.347Z,385
2022-08-19T03:28:07.852Z,432
2022-08-19T03:29:07.235Z,392
2022-08-19T03:30:07.641Z,382
2022-08-19T03:31:42.121Z,392
2022-08-19T03:32:08.000Z,387
2022-08-19T03:33:07.271Z,393
2022-08-19T03:34:08.147Z,405
2022-08-19T03:35:07.407Z,394
2022-08-19T03:36:07.591Z,395
2022-08-19T03:38:07.609Z,394
2022-08-19T03:39:07.678Z,397
2022-08-19T03:40:07.913Z,394
2022-08-19T03:41:07.123Z,396
2022-08-19T03:42:38.463Z,388
2022-08-19T03:43:08.149Z,402
2022-08-19T03:44:07.244Z,390
2022-08-19T03:45:07.749Z,388
2022-08-19T03:46:07.238Z,391
2022-08-19T03:47:07.474Z,399
2022-08-19T03:48:08.031Z,391
2022-08-19T03:49:07.341Z,395
2022-08-19T03:50:07.209Z,397
2022-08-19T03:51:07.294Z,404
2022-08-19T03:52:07.382Z,399
2022-08-19T03:53:07.436Z,401
2022-08-19T03:54:07.542Z,389
2022-08-19T03:55:07.698Z,396
2022-08-19T03:56:07.094Z,388
2022-08-19T03:57:07.382Z,374
2022-08-19T03:58:07.346Z,378
2022-08-19T03:59:07.167Z,389
2022-08-19T04:00:13.805Z,384
2022-08-19T04:01:07.407Z,393
2022-08-19T04:02:07.459Z,391
2022-08-19T04:03:07.733Z,385
2022-08-19T04:04:07.860Z,393
2022-08-19T04:06:07.225Z,384
2022-08-19T04:07:07.687Z,388
2022-08-19T04:08:10.727Z,393
2022-08-19T04:09:07.887Z,395
2022-08-19T04:10:07.177Z,388
2022-08-19T04:11:07.093Z,391
2022-08-19T04:12:07.407Z,394
2022-08-19T04:13:07.506Z,409
2022-08-19T04:14:07.334Z,372
2022-08-19T04:15:07.815Z,378
2022-08-19T04:16:07.199Z,386
2022-08-19T04:17:07.452Z,392
2022-08-19T04:18:06.983Z,384
2022-08-19T04:19:07.293Z,391
2022-08-19T04:20:07.580Z,397
2022-08-19T04:21:07.648Z,396
2022-08-19T04:22:07.612Z,393
2022-08-19T04:23:07.760Z,383
2022-08-19T04:24:08.077Z,384
2022-08-19T04:25:07.649Z,391
2022-08-19T04:26:07.379Z,390
2022-08-19T04:27:07.210Z,392
2022-08-19T04:28:07.312Z,387
2022-08-19T04:29:11.650Z,439
2022-08-19T04:30:08.115Z,404
2022-08-19T04:31:07.577Z,395
2022-08-19T04:32:08.550Z,398
2022-08-19T04:33:12.442Z,411
2022-08-19T04:34:07.174Z,404
2022-08-19T04:35:18.455Z,403
2022-08-19T04:36:07.159Z,408
2022-08-19T04:37:07.129Z,412
2022-08-19T04:38:07.070Z,404
2022-08-19T04:39:07.321Z,417
2022-08-19T04:40:07.572Z,414
2022-08-19T04:41:07.103Z,402
2022-08-19T04:42:07.208Z,401
2022-08-19T04:43:07.394Z,406
2022-08-19T04:44:07.484Z,402
2022-08-19T04:45:09.323Z,396
2022-08-19T04:46:07.681Z,400
2022-08-19T04:47:10.974Z,405
2022-08-19T04:49:13.053Z,401
2022-08-19T04:50:07.962Z,412
2022-08-19T04:51:07.784Z,409
2022-08-19T04:52:07.015Z,415
2022-08-19T04:53:07.217Z,410
2022-08-19T04:54:07.229Z,400
2022-08-19T04:55:07.625Z,394
2022-08-19T04:56:07.719Z,398
2022-08-19T04:57:08.221Z,397
2022-08-19T04:58:07.403Z,400
2022-08-19T04:59:07.638Z,406
2022-08-19T05:00:08.460Z,386
2022-08-19T05:01:07.218Z,397
2022-08-19T05:02:07.675Z,402
2022-08-19T05:03:07.928Z,396
2022-08-19T05:04:07.220Z,398
2022-08-19T05:05:07.352Z,402
2022-08-19T05:06:07.482Z,398
2022-08-19T05:07:07.529Z,401
2022-08-19T05:08:07.760Z,402
2022-08-19T05:09:07.216Z,399
2022-08-19T05:10:07.501Z,403
2022-08-19T05:11:07.621Z,417
2022-08-19T05:12:07.106Z,411
2022-08-19T05:13:07.289Z,391
2022-08-19T05:14:07.265Z,389
2022-08-19T05:15:07.455Z,425
2022-08-19T05:16:07.051Z,392
2022-08-19T05:17:26.537Z,386
2022-08-19T05:18:07.661Z,391
2022-08-19T05:19:06.982Z,400
2022-08-19T05:20:07.304Z,403
2022-08-19T05:21:07.269Z,405
2022-08-19T05:22:07.373Z,417
2022-08-19T05:23:10.815Z,401
2022-08-19T05:24:07.070Z,384
2022-08-19T05:25:13.059Z,381
2022-08-19T05:26:07.558Z,379
2022-08-19T05:27:07.300Z,391
2022-08-19T05:28:07.450Z,398
2022-08-19T05:29:07.633Z,399
2022-08-19T05:30:07.619Z,398
2022-08-19T05:31:07.117Z,404
2022-08-19T05:32:07.507Z,394
2022-08-19T05:33:07.905Z,384
2022-08-19T05:34:07.264Z,380
2022-08-19T05:35:07.424Z,381
2022-08-19T05:36:07.953Z,387
2022-08-19T05:37:07.470Z,391
2022-08-19T05:38:07.967Z,379
2022-08-19T05:39:07.473Z,386
2022-08-19T05:41:07.973Z,389
2022-08-19T05:42:07.363Z,382
2022-08-19T05:43:07.640Z,390
2022-08-19T05:44:07.890Z,376
2022-08-19T05:45:08.965Z,377
2022-08-19T05:46:07.506Z,371
2022-08-19T05:47:07.907Z,369
2022-08-19T05:48:07.283Z,374
2022-08-19T05:49:07.510Z,383
2022-08-19T05:50:07.784Z,379
2022-08-19T05:51:07.233Z,381
2022-08-19T05:52:07.498Z,379
2022-08-19T05:53:07.429Z,385
2022-08-19T05:54:07.546Z,375
2022-08-19T05:55:08.412Z,370
2022-08-19T05:56:07.597Z,371
2022-08-19T05:57:07.601Z,376
2022-08-19T05:58:07.112Z,380
2022-08-19T05:59:07.307Z,388
2022-08-19T06:00:08.406Z,382
2022-08-19T06:01:07.216Z,376
2022-08-19T06:02:07.785Z,374
2022-08-19T06:03:11.847Z,386
2022-08-19T06:04:07.456Z,383
2022-08-19T06:05:07.988Z,382
2022-08-19T06:06:07.466Z,374
2022-08-19T06:07:11.949Z,361
2022-08-19T06:08:07.594Z,369
2022-08-19T06:09:07.820Z,367
2022-08-19T06:10:08.041Z,371
2022-08-19T06:11:07.735Z,383
2022-08-19T06:13:07.919Z,379
2022-08-19T06:14:07.350Z,376
2022-08-19T06:15:08.197Z,379
2022-08-19T06:16:07.672Z,386
2022-08-19T06:17:07.686Z,364
2022-08-19T06:18:07.263Z,363
2022-08-19T06:19:07.645Z,370
2022-08-19T06:20:08.056Z,360
2022-08-19T06:21:07.373Z,374
2022-08-19T06:22:07.529Z,377
2022-08-19T06:23:07.735Z,369
2022-08-19T06:24:07.114Z,373
2022-08-19T06:26:07.687Z,358
2022-08-19T06:28:15.781Z,371
2022-08-19T06:30:08.128Z,372
2022-08-19T06:31:07.619Z,365
2022-08-19T06:32:07.258Z,366
2022-08-19T06:33:07.980Z,373
2022-08-19T06:34:07.259Z,370
2022-08-19T06:36:07.695Z,376
2022-08-19T06:37:07.196Z,373
2022-08-19T06:38:07.459Z,365
2022-08-19T06:39:07.583Z,364
2022-08-19T06:40:08.109Z,366
2022-08-19T06:41:08.149Z,373
2022-08-19T06:42:07.637Z,378
2022-08-19T06:43:08.627Z,377
2022-08-19T06:44:07.694Z,370
2022-08-19T06:45:09.510Z,366
2022-08-19T06:46:07.363Z,359
2022-08-19T06:47:14.422Z,364
2022-08-19T06:48:07.415Z,362
2022-08-19T06:49:07.863Z,354
2022-08-19T06:50:07.703Z,350
2022-08-19T06:52:07.324Z,358
2022-08-19T06:53:07.472Z,375
2022-08-19T06:54:07.641Z,370
2022-08-19T06:55:07.597Z,361
2022-08-19T06:56:07.793Z,367
2022-08-19T06:57:07.171Z,368
2022-08-19T06:58:07.412Z,363
2022-08-19T06:59:07.381Z,365
2022-08-19T07:00:12.263Z,371
2022-08-19T07:01:09.146Z,360
2022-08-19T07:02:07.684Z,357
2022-08-19T07:03:08.775Z,351
2022-08-19T07:04:07.495Z,366
2022-08-19T07:05:07.930Z,375
2022-08-19T07:07:20.203Z,372
2022-08-19T07:08:07.745Z,379
2022-08-19T07:09:07.969Z,370
2022-08-19T07:10:07.849Z,373
2022-08-19T07:11:09.433Z,375
2022-08-19T07:12:07.392Z,371
2022-08-19T07:13:07.275Z,367
2022-08-19T07:14:07.576Z,362
2022-08-19T07:15:07.427Z,356
2022-08-19T07:16:07.289Z,357
2022-08-19T07:17:07.219Z,402
2022-08-19T07:18:07.561Z,385
2022-08-19T07:19:11.809Z,376
2022-08-19T07:20:09.623Z,375
2022-08-19T07:21:09.498Z,379
2022-08-19T07:22:07.684Z,372
2022-08-19T07:23:07.421Z,373
2022-08-19T07:24:07.611Z,363
2022-08-19T07:25:07.229Z,370
2022-08-19T07:26:07.473Z,374
2022-08-19T07:27:15.276Z,355
2022-08-19T07:28:07.548Z,356
2022-08-19T07:29:07.817Z,363
2022-08-19T07:30:07.426Z,351
2022-08-19T07:31:07.391Z,366
2022-08-19T07:32:07.703Z,341
2022-08-19T07:33:07.160Z,348
2022-08-19T07:34:07.249Z,341
2022-08-19T07:35:07.510Z,351
2022-08-19T07:36:08.047Z,359
2022-08-19T07:37:07.379Z,356
2022-08-19T07:38:07.659Z,359
2022-08-19T07:39:08.042Z,366
2022-08-19T07:40:07.412Z,349
2022-08-19T07:41:07.100Z,352
2022-08-19T07:42:07.465Z,356
2022-08-19T07:43:07.895Z,353
2022-08-19T07:45:08.183Z,358
2022-08-19T07:46:07.237Z,361
2022-08-19T07:47:07.648Z,365
2022-08-19T07:48:07.617Z,362
2022-08-19T07:49:07.116Z,368
2022-08-19T07:50:07.729Z,359
2022-08-19T07:51:07.294Z,352
2022-08-19T07:52:07.307Z,349
2022-08-19T07:53:07.850Z,350
2022-08-19T07:54:07.417Z,364
2022-08-19T07:55:07.690Z,362
2022-08-19T07:56:07.536Z,354
2022-08-19T07:57:07.191Z,355
2022-08-19T07:58:07.484Z,346
2022-08-19T07:59:07.263Z,354
2022-08-19T08:00:08.522Z,368
2022-08-19T08:01:07.364Z,331
2022-08-19T08:02:08.064Z,337
2022-08-19T08:03:07.787Z,362
2022-08-19T08:04:07.286Z,365
2022-08-19T08:05:07.585Z,356
2022-08-19T08:06:07.864Z,349
2022-08-19T08:07:07.466Z,355
2022-08-19T08:08:07.760Z,348
2022-08-19T08:09:07.885Z,346
2022-08-19T08:10:13.997Z,348
2022-08-19T08:11:08.385Z,351
2022-08-19T08:12:32.449Z,352
2022-08-19T08:13:09.161Z,365
2022-08-19T08:14:07.872Z,380
2022-08-19T08:15:08.306Z,353
2022-08-19T08:16:10.429Z,360
2022-08-19T08:17:10.965Z,364
2022-08-19T08:18:07.336Z,359
2022-08-19T08:19:18.208Z,353
2022-08-19T08:20:07.401Z,370
2022-08-19T08:21:07.420Z,371
2022-08-19T08:22:07.833Z,372
2022-08-19T08:23:07.466Z,366
2022-08-19T08:24:08.150Z,377
2022-08-19T08:25:07.487Z,373
2022-08-19T08:26:07.289Z,366
2022-08-19T08:27:11.300Z,363
2022-08-19T08:28:07.128Z,362
2022-08-19T08:29:11.481Z,364
2022-08-19T08:30:07.305Z,358
2022-08-19T08:31:09.567Z,356
2022-08-19T08:32:14.264Z,348
2022-08-19T08:33:07.770Z,359
2022-08-19T08:35:07.226Z,370
2022-08-19T08:36:07.872Z,367
2022-08-19T08:37:07.470Z,365
2022-08-19T08:38:07.694Z,368
2022-08-19T08:39:07.323Z,371
2022-08-19T08:40:11.272Z,353
2022-08-19T08:42:10.416Z,350
2022-08-19T08:43:11.209Z,345
2022-08-19T08:44:07.746Z,338
2022-08-19T08:45:07.802Z,348
2022-08-19T08:47:07.907Z,342
2022-08-19T08:48:07.628Z,346
2022-08-19T08:49:07.413Z,334
2022-08-19T08:50:07.412Z,342
2022-08-19T08:51:07.645Z,356
2022-08-19T08:52:07.259Z,362
2022-08-19T08:53:07.838Z,356
2022-08-19T08:54:07.452Z,347
2022-08-19T08:55:10.270Z,346
2022-08-19T08:56:07.422Z,351
2022-08-19T08:57:07.419Z,366
2022-08-19T08:58:07.462Z,348
2022-08-19T08:59:07.619Z,352
2022-08-19T09:01:07.685Z,364
2022-08-19T09:03:07.489Z,342
2022-08-19T09:04:07.190Z,335
2022-08-19T09:06:12.012Z,339
2022-08-19T09:08:07.273Z,335
2022-08-19T09:09:11.764Z,338
2022-08-19T09:10:07.306Z,339
2022-08-19T09:11:07.769Z,367
2022-08-19T09:12:07.743Z,355
2022-08-19T09:13:09.147Z,350
2022-08-19T09:14:07.379Z,346
2022-08-19T09:15:07.578Z,355
2022-08-19T09:16:07.326Z,347
2022-08-19T09:17:07.651Z,336
2022-08-19T09:18:08.177Z,349
2022-08-19T09:19:07.630Z,344
2022-08-19T09:20:09.149Z,336
2022-08-19T09:21:12.316Z,343
2022-08-19T09:23:07.734Z,356
2022-08-19T09:24:07.537Z,355
2022-08-19T09:25:07.994Z,350
2022-08-19T09:26:07.362Z,356
2022-08-19T09:27:18.303Z,355
2022-08-19T09:28:22.686Z,336
2022-08-19T09:29:07.415Z,349
2022-08-19T09:30:07.960Z,352
2022-08-19T09:31:07.682Z,337
2022-08-19T09:32:07.191Z,340
2022-08-19T09:33:07.135Z,341
2022-08-19T09:34:07.450Z,346
2022-08-19T09:35:08.634Z,348
2022-08-19T09:36:08.570Z,350
2022-08-19T09:37:07.691Z,337
2022-08-19T09:38:07.393Z,354
2022-08-19T09:39:16.089Z,327
2022-08-19T09:40:07.948Z,324
2022-08-19T09:41:07.369Z,345
2022-08-19T09:43:11.487Z,343
2022-08-19T09:44:07.439Z,353
2022-08-19T09:45:10.400Z,349
2022-08-19T09:46:07.345Z,343
2022-08-19T09:47:07.632Z,338
2022-08-19T09:48:07.287Z,334
2022-08-19T09:49:07.621Z,343
2022-08-19T09:50:07.728Z,340
2022-08-19T09:51:07.346Z,364
2022-08-19T09:52:07.617Z,371
2022-08-19T09:53:07.787Z,352
2022-08-19T09:54:07.164Z,351
2022-08-19T09:55:07.602Z,363
2022-08-19T09:57:07.869Z,352
2022-08-19T09:58:07.365Z,353
2022-08-19T09:59:07.771Z,350
2022-08-19T10:00:07.947Z,351
2022-08-19T10:01:07.921Z,342
2022-08-19T10:02:10.584Z,336
2022-08-19T10:03:07.391Z,345
2022-08-19T10:04:14.720Z,347
2022-08-19T10:05:07.517Z,329
2022-08-19T10:06:15.131Z,336
2022-08-19T10:07:07.462Z,350
2022-08-19T10:08:07.663Z,349
2022-08-19T10:09:08.980Z,351
2022-08-19T10:10:07.876Z,357
2022-08-19T10:11:28.481Z,367
2022-08-19T10:12:11.251Z,363
2022-08-19T10:13:07.534Z,364
2022-08-19T10:14:07.537Z,365
2022-08-19T10:15:08.080Z,357
2022-08-19T10:16:07.602Z,353
2022-08-19T10:17:19.931Z,349
2022-08-19T10:18:07.553Z,348
2022-08-19T10:19:08.040Z,346
2022-08-19T10:20:07.808Z,348
2022-08-19T10:21:07.644Z,356
2022-08-19T10:22:10.176Z,353
2022-08-19T10:23:07.858Z,365
2022-08-19T10:24:09.454Z,356
2022-08-19T10:25:07.341Z,351
2022-08-19T10:26:07.407Z,349
2022-08-19T10:27:07.749Z,336
2022-08-19T10:28:10.756Z,327
2022-08-19T10:29:09.463Z,325
2022-08-19T10:30:09.896Z,345
2022-08-19T10:31:07.681Z,337
2022-08-19T10:32:09.405Z,350
2022-08-19T10:33:11.044Z,355
2022-08-19T10:34:10.000Z,364
2022-08-19T10:35:07.791Z,367
2022-08-19T10:36:07.407Z,365
2022-08-19T10:37:10.158Z,356
2022-08-19T10:38:07.440Z,347
2022-08-19T10:39:08.120Z,349
2022-08-19T10:40:08.025Z,351
2022-08-19T10:41:07.896Z,343
2022-08-19T10:42:07.265Z,349
2022-08-19T10:43:07.745Z,333
2022-08-19T10:44:07.425Z,335
2022-08-19T10:45:08.025Z,359
2022-08-19T10:46:14.238Z,354
2022-08-19T10:48:07.784Z,358
2022-08-19T10:49:07.752Z,356
2022-08-19T10:50:07.880Z,349
2022-08-19T10:51:07.855Z,348
2022-08-19T10:52:07.660Z,345
2022-08-19T10:53:08.042Z,347
2022-08-19T10:54:12.383Z,343
2022-08-19T10:55:08.515Z,359
2022-08-19T10:56:07.677Z,344
2022-08-19T10:57:07.244Z,351
2022-08-19T10:58:07.988Z,356
2022-08-19T10:59:07.339Z,360
2022-08-19T11:00:08.580Z,364
2022-08-19T11:01:08.018Z,349
2022-08-19T11:03:07.360Z,350
2022-08-19T11:04:07.650Z,347
2022-08-19T11:05:12.796Z,345
2022-08-19T11:06:07.930Z,353
2022-08-19T11:07:07.561Z,362
2022-08-19T11:08:22.902Z,367
2022-08-19T11:09:07.512Z,350
2022-08-19T11:11:07.903Z,358
2022-08-19T11:12:07.587Z,356
2022-08-19T11:13:08.042Z,360
2022-08-19T11:14:07.650Z,356
2022-08-19T11:15:08.403Z,357
2022-08-19T11:16:07.923Z,358
2022-08-19T11:17:07.995Z,344
2022-08-19T11:18:07.677Z,351
2022-08-19T11:19:07.077Z,348
2022-08-19T11:20:07.798Z,356
2022-08-19T11:21:07.283Z,338
2022-08-19T11:22:07.689Z,354
2022-08-19T11:23:07.633Z,340
2022-08-19T11:24:07.521Z,355
2022-08-19T11:25:07.266Z,361
2022-08-19T11:26:07.915Z,343
2022-08-19T11:27:07.833Z,341
2022-08-19T11:28:07.364Z,349
2022-08-19T11:29:07.646Z,359
2022-08-19T11:30:07.094Z,366
2022-08-19T11:31:07.084Z,363
2022-08-19T11:32:07.737Z,353
2022-08-19T11:35:08.033Z,355
2022-08-19T11:36:07.546Z,354
2022-08-19T11:37:07.251Z,351
2022-08-19T11:39:07.772Z,347
2022-08-19T11:40:07.676Z,343
2022-08-19T11:41:07.892Z,340
2022-08-19T11:42:07.372Z,333
2022-08-19T11:43:07.973Z,338
2022-08-19T11:44:07.427Z,354
2022-08-19T11:45:08.107Z,351
2022-08-19T11:46:07.604Z,331
2022-08-19T11:47:08.833Z,373
2022-08-19T11:48:07.481Z,368
2022-08-19T11:49:10.733Z,349
2022-08-19T11:50:08.060Z,343
2022-08-19T11:51:07.796Z,335
2022-08-19T11:52:07.432Z,336
2022-08-19T11:53:07.985Z,330
2022-08-19T11:54:08.481Z,337
2022-08-19T11:56:07.977Z,336
2022-08-19T11:57:07.646Z,334
2022-08-19T11:58:07.050Z,329
2022-08-19T11:59:08.826Z,387
2022-08-19T12:00:21.886Z,364
2022-08-19T12:01:07.499Z,359
2022-08-19T12:02:07.769Z,350
2022-08-19T12:03:07.319Z,346
2022-08-19T12:04:07.568Z,351
2022-08-19T12:05:11.971Z,357
2022-08-19T12:06:07.623Z,359
2022-08-19T12:07:07.370Z,352
2022-08-19T12:08:07.775Z,343
2022-08-19T12:09:07.684Z,344
2022-08-19T12:10:07.366Z,345
2022-08-19T12:11:07.695Z,347
2022-08-19T12:12:07.287Z,354
2022-08-19T12:13:08.340Z,331
2022-08-19T12:14:07.913Z,339
2022-08-19T12:15:08.439Z,355
2022-08-19T12:16:07.534Z,354
2022-08-19T12:17:07.619Z,344
2022-08-19T12:18:07.502Z,360
2022-08-19T12:19:07.392Z,354
2022-08-19T12:20:07.598Z,358
2022-08-19T12:21:07.849Z,350
2022-08-19T12:23:07.983Z,345
2022-08-19T12:24:07.541Z,333
2022-08-19T12:25:08.110Z,347
2022-08-19T12:26:07.660Z,351
2022-08-19T12:28:07.421Z,352
2022-08-19T12:29:07.841Z,351
2022-08-19T12:30:07.869Z,350
2022-08-19T12:31:07.614Z,362
2022-08-19T12:32:07.453Z,365
2022-08-19T12:33:07.420Z,370
2022-08-19T12:34:08.231Z,355
2022-08-19T12:35:07.348Z,349
2022-08-19T12:36:08.281Z,353
2022-08-19T12:37:08.094Z,334
2022-08-19T12:38:07.695Z,385
2022-08-19T12:39:07.304Z,372
2022-08-19T12:40:07.395Z,360
2022-08-19T12:41:07.434Z,355
2022-08-19T12:42:07.185Z,359
2022-08-19T12:43:07.830Z,356
2022-08-19T12:44:07.447Z,343
2022-08-19T12:46:07.116Z,350
2022-08-19T12:47:08.011Z,355
2022-08-19T12:48:32.966Z,363
2022-08-19T12:49:15.329Z,370
2022-08-19T12:50:07.635Z,336
2022-08-19T12:51:07.286Z,376
2022-08-19T12:52:07.722Z,375
2022-08-19T12:53:07.332Z,352
2022-08-19T12:54:07.627Z,354
2022-08-19T12:55:07.325Z,348
2022-08-19T12:56:12.212Z,350
2022-08-19T12:57:07.591Z,347
2022-08-19T12:58:07.939Z,334
2022-08-19T12:59:07.614Z,340
2022-08-19T13:00:08.810Z,346
2022-08-19T13:01:07.486Z,354
2022-08-19T13:02:07.481Z,330
2022-08-19T13:03:07.854Z,389
2022-08-19T13:04:07.525Z,350
2022-08-19T13:05:07.398Z,349
2022-08-19T13:06:07.814Z,355
2022-08-19T13:07:07.522Z,351
2022-08-19T13:08:08.198Z,353
2022-08-19T13:09:07.689Z,357
2022-08-19T13:10:07.829Z,367
2022-08-19T13:11:07.423Z,370
2022-08-19T13:12:08.194Z,372
2022-08-19T13:13:07.972Z,377
2022-08-19T13:14:07.648Z,359
2022-08-19T13:15:11.132Z,338
2022-08-19T13:16:07.494Z,401
2022-08-19T13:17:07.954Z,377
2022-08-19T13:18:08.266Z,354
2022-08-19T13:20:08.072Z,349
2022-08-19T13:21:08.331Z,350
2022-08-19T13:22:14.959Z,361
2022-08-19T13:23:08.061Z,362
2022-08-19T13:24:08.068Z,360
2022-08-19T13:25:07.229Z,367
2022-08-19T13:26:07.982Z,350
2022-08-19T13:27:07.611Z,352
2022-08-19T13:28:07.981Z,361
2022-08-19T13:29:08.294Z,371
2022-08-19T13:30:08.470Z,363
2022-08-19T13:31:07.918Z,364
2022-08-19T13:32:07.609Z,356
2022-08-19T13:33:07.834Z,352
2022-08-19T13:34:07.511Z,351
2022-08-19T13:35:07.359Z,344
2022-08-19T13:36:07.669Z,351
2022-08-19T13:37:07.302Z,348
2022-08-19T13:38:12.133Z,350
2022-08-19T13:39:08.028Z,365
2022-08-19T13:40:08.043Z,356
2022-08-19T13:41:12.118Z,350
2022-08-19T13:42:07.708Z,353
2022-08-19T13:43:17.712Z,350
2022-08-19T13:44:07.168Z,357
2022-08-19T13:45:08.144Z,361
2022-08-19T13:46:07.797Z,355
2022-08-19T13:47:07.630Z,342
2022-08-19T13:48:07.171Z,343
2022-08-19T13:49:07.547Z,348
2022-08-19T13:50:07.920Z,347
2022-08-19T13:51:07.306Z,357
2022-08-19T13:52:07.856Z,351
2022-08-19T13:53:07.540Z,356
2022-08-19T13:54:08.293Z,364
2022-08-19T13:55:07.868Z,373
2022-08-19T13:56:07.375Z,375
2022-08-19T13:58:07.245Z,362
2022-08-19T13:59:07.452Z,355
2022-08-19T14:00:08.690Z,357
2022-08-19T14:01:07.525Z,359
2022-08-19T14:02:07.375Z,355
2022-08-19T14:03:09.431Z,340
2022-08-19T14:04:07.111Z,390
2022-08-19T14:05:08.094Z,362
2022-08-19T14:06:07.862Z,340
2022-08-19T14:07:07.648Z,346
2022-08-19T14:08:08.052Z,360
2022-08-19T14:09:07.665Z,358
2022-08-19T14:10:07.769Z,359
2022-08-19T14:11:07.407Z,362
2022-08-19T14:12:08.192Z,361
2022-08-19T14:13:08.071Z,360
2022-08-19T14:14:07.794Z,346
2022-08-19T14:16:08.747Z,364
2022-08-19T14:17:07.683Z,324
2022-08-19T14:18:07.486Z,337
2022-08-19T14:19:07.189Z,352
2022-08-19T14:20:10.841Z,358
2022-08-19T14:21:07.913Z,354
2022-08-19T14:22:07.830Z,347
2022-08-19T14:23:08.109Z,343
2022-08-19T14:24:07.789Z,350
2022-08-19T14:26:07.318Z,358
2022-08-19T14:27:07.889Z,365
2022-08-19T14:28:07.811Z,383
2022-08-19T14:29:07.197Z,355
2022-08-19T14:30:07.667Z,349
2022-08-19T14:31:07.831Z,348